This is the latest recevied weather packets stored in our database for station/object W2JBO-5. If no packets are shown the sender has not sent any weather packets the latest 1 day(s).
| Time | Temp. | Humidity | Pressure | Rain* | Wind** | Luminosity | Snow |
|---|---|---|---|---|---|---|---|
| 1778017798 | 27.22° C | 75% | 1010.7 hPa | 0 mm | 1.34 m/s, 199° | 111 W/m² | - |
| 1778017496 | 27.22° C | 75% | 1010.7 hPa | 0 mm | 1.34 m/s, 183° | 99 W/m² | - |
| 1778017193 | 27.78° C | 74% | - | 0 mm | 0.89 m/s, 180° | - | - |
| 1778016891 | 27.22° C | 74% | - | 0 mm | 2.24 m/s, 196° | - | - |
| 1778016586 | 27.78° C | 75% | - | 0 mm | 2.68 m/s, 192° | - | - |
| 1778016283 | 27.22° C | 75% | - | 0 mm | 0.89 m/s, 228° | - | - |
| 1778015979 | 27.22° C | 76% | - | 0 mm | 1.79 m/s, 229° | - | - |
| 1778015677 | 27.22° C | 76% | - | 0 mm | 0.89 m/s, 208° | - | - |
| 1778015373 | 27.22° C | 75% | - | 0 mm | 0.89 m/s, 219° | - | - |
| 1778015071 | 27.22° C | 75% | - | 0 mm | 0.45 m/s, 219° | - | - |
| 1778014767 | 27.22° C | 75% | - | 0 mm | 2.24 m/s, 208° | - | - |
| 1778014466 | 27.22° C | 76% | - | 0 mm | 0.45 m/s, 225° | - | - |
| 1778014162 | 27.22° C | 75% | - | 0 mm | 1.34 m/s, 179° | - | - |
| 1778013861 | 27.22° C | 74% | - | 0 mm | 2.68 m/s, 232° | - | - |
| 1778013558 | 27.22° C | 74% | - | 0 mm | 3.13 m/s, 183° | - | - |
| 1778013254 | 27.22° C | 74% | - | 0 mm | 0.89 m/s, 270° | - | - |
| 1778012950 | 27.78° C | 73% | - | 0 mm | 2.24 m/s, 178° | - | - |
| 1778012646 | 27.22° C | 73% | - | 0 mm | 1.79 m/s, 214° | - | - |
| 1778012343 | 27.22° C | 73% | - | 0 mm | 2.24 m/s, 171° | - | - |
| 1778012040 | 27.22° C | 74% | - | 0 mm | 0.89 m/s, 293° | - | - |
| 1778011739 | 27.22° C | 73% | - | 0 mm | 1.34 m/s, 203° | - | - |
| 1778011435 | 27.78° C | 73% | - | 0 mm | 1.79 m/s, 200° | - | - |
| 1778011130 | 27.78° C | 73% | - | 0 mm | 0.89 m/s, 192° | - | - |
| 1778010828 | 27.22° C | 72% | - | 0 mm | 0 m/s | - | - |
| 1778010525 | 27.78° C | 71% | - | 0 mm | 0.89 m/s, 229° | - | - |
* Rain latest hour (hover to see other rain measurements)
** Current wind speed in m/s (hover to see current wind gust speed)